sensor_id;sensor_type;location;lat;lon;timestamp;temperature;humidity
15937;DHT22;9163;48.818;8.976;2024-03-02T00:00:31;5.00;99.90
15937;DHT22;9163;48.818;8.976;2024-03-02T00:02:58;5.00;99.90
15937;DHT22;9163;48.818;8.976;2024-03-02T00:05:25;4.90;99.90
15937;DHT22;9163;48.818;8.976;2024-03-02T00:07:54;4.90;99.90
15937;DHT22;9163;48.818;8.976;2024-03-02T00:10:22;4.90;99.90
15937;DHT22;9163;48.818;8.976;2024-03-02T00:12:56;4.80;99.90
15937;DHT22;9163;48.818;8.976;2024-03-02T00:15:40;4.80;99.90
15937;DHT22;9163;48.818;8.976;2024-03-02T00:18:10;4.80;99.90
15937;DHT22;9163;48.818;8.976;2024-03-02T00:20:38;4.80;99.90
15937;DHT22;9163;48.818;8.976;2024-03-02T00:23:08;4.80;99.90
15937;DHT22;9163;48.818;8.976;2024-03-02T00:25:38;4.80;99.90
15937;DHT22;9163;48.818;8.976;2024-03-02T00:28:11;4.90;99.90
15937;DHT22;9163;48.818;8.976;2024-03-02T00:30:52;4.90;99.90
15937;DHT22;9163;48.818;8.976;2024-03-02T00:33:21;5.00;99.90
15937;DHT22;9163;48.818;8.976;2024-03-02T00:35:49;5.00;99.90
15937;DHT22;9163;48.818;8.976;2024-03-02T00:38:17;5.00;99.90
15937;DHT22;9163;48.818;8.976;2024-03-02T00:40:45;5.10;99.90
15937;DHT22;9163;48.818;8.976;2024-03-02T00:43:41;5.20;99.90
15937;DHT22;9163;48.818;8.976;2024-03-02T00:46:13;5.20;99.90
15937;DHT22;9163;48.818;8.976;2024-03-02T00:48:55;5.10;99.90
15937;DHT22;9163;48.818;8.976;2024-03-02T00:51:24;5.10;99.90
15937;DHT22;9163;48.818;8.976;2024-03-02T00:53:52;5.20;99.90
15937;DHT22;9163;48.818;8.976;2024-03-02T00:56:22;5.20;99.90
15937;DHT22;9163;48.818;8.976;2024-03-02T00:58:51;5.20;99.90
15937;DHT22;9163;48.818;8.976;2024-03-02T01:01:19;5.20;99.90
15937;DHT22;9163;48.818;8.976;2024-03-02T01:03:47;5.20;99.90
15937;DHT22;9163;48.818;8.976;2024-03-02T01:06:15;5.20;99.90
15937;DHT22;9163;48.818;8.976;2024-03-02T01:08:43;5.20;99.90
15937;DHT22;9163;48.818;8.976;2024-03-02T01:11:10;5.20;99.90
15937;DHT22;9163;48.818;8.976;2024-03-02T01:13:37;5.20;99.90
15937;DHT22;9163;48.818;8.976;2024-03-02T01:16:06;5.30;99.90
15937;DHT22;9163;48.818;8.976;2024-03-02T01:18:33;5.30;99.90
15937;DHT22;9163;48.818;8.976;2024-03-02T01:21:01;5.30;99.90
15937;DHT22;9163;48.818;8.976;2024-03-02T01:23:28;5.30;99.90
15937;DHT22;9163;48.818;8.976;2024-03-02T01:25:55;5.30;99.90
15937;DHT22;9163;48.818;8.976;2024-03-02T01:28:22;5.30;99.90
15937;DHT22;9163;48.818;8.976;2024-03-02T01:30:50;5.20;99.90
15937;DHT22;9163;48.818;8.976;2024-03-02T01:33:19;5.20;99.90
15937;DHT22;9163;48.818;8.976;2024-03-02T01:35:47;5.20;99.90
15937;DHT22;9163;48.818;8.976;2024-03-02T01:38:14;5.20;99.90
15937;DHT22;9163;48.818;8.976;2024-03-02T01:40:42;5.10;99.90
15937;DHT22;9163;48.818;8.976;2024-03-02T01:43:10;5.10;99.90
15937;DHT22;9163;48.818;8.976;2024-03-02T01:45:37;5.00;99.90
15937;DHT22;9163;48.818;8.976;2024-03-02T01:48:06;5.00;99.90
15937;DHT22;9163;48.818;8.976;2024-03-02T01:50:35;5.00;99.90
15937;DHT22;9163;48.818;8.976;2024-03-02T01:53:03;5.00;99.90
15937;DHT22;9163;48.818;8.976;2024-03-02T01:55:30;5.00;99.90
15937;DHT22;9163;48.818;8.976;2024-03-02T01:57:59;4.90;99.90
15937;DHT22;9163;48.818;8.976;2024-03-02T02:00:26;4.90;99.90
15937;DHT22;9163;48.818;8.976;2024-03-02T02:02:54;4.90;99.90
15937;DHT22;9163;48.818;8.976;2024-03-02T02:05:21;4.80;99.90
15937;DHT22;9163;48.818;8.976;2024-03-02T02:07:50;4.80;99.90
15937;DHT22;9163;48.818;8.976;2024-03-02T02:10:17;4.80;99.90
15937;DHT22;9163;48.818;8.976;2024-03-02T02:12:45;4.80;99.90
15937;DHT22;9163;48.818;8.976;2024-03-02T02:15:25;4.80;99.90
15937;DHT22;9163;48.818;8.976;2024-03-02T02:17:53;4.90;99.90
15937;DHT22;9163;48.818;8.976;2024-03-02T02:20:20;4.90;99.90
15937;DHT22;9163;48.818;8.976;2024-03-02T02:22:58;4.90;99.90
15937;DHT22;9163;48.818;8.976;2024-03-02T02:25:26;4.90;99.90
15937;DHT22;9163;48.818;8.976;2024-03-02T02:27:55;4.90;99.90
15937;DHT22;9163;48.818;8.976;2024-03-02T02:30:24;4.80;99.90
15937;DHT22;9163;48.818;8.976;2024-03-02T02:32:52;4.70;99.90
15937;DHT22;9163;48.818;8.976;2024-03-02T02:35:19;4.70;99.90
15937;DHT22;9163;48.818;8.976;2024-03-02T02:37:47;4.70;99.90
15937;DHT22;9163;48.818;8.976;2024-03-02T02:40:17;4.70;99.90
15937;DHT22;9163;48.818;8.976;2024-03-02T02:42:45;4.60;99.90
15937;DHT22;9163;48.818;8.976;2024-03-02T02:45:12;4.50;99.90
15937;DHT22;9163;48.818;8.976;2024-03-02T02:47:40;4.50;99.90
15937;DHT22;9163;48.818;8.976;2024-03-02T02:50:09;4.40;99.90
15937;DHT22;9163;48.818;8.976;2024-03-02T02:52:38;4.40;99.90
15937;DHT22;9163;48.818;8.976;2024-03-02T02:55:07;4.40;99.90
15937;DHT22;9163;48.818;8.976;2024-03-02T02:57:36;4.40;99.90
15937;DHT22;9163;48.818;8.976;2024-03-02T03:00:06;4.40;99.90
15937;DHT22;9163;48.818;8.976;2024-03-02T03:02:39;4.30;99.90
15937;DHT22;9163;48.818;8.976;2024-03-02T03:05:08;4.30;99.90
15937;DHT22;9163;48.818;8.976;2024-03-02T03:07:36;4.30;99.90
15937;DHT22;9163;48.818;8.976;2024-03-02T03:10:04;4.20;99.90
15937;DHT22;9163;48.818;8.976;2024-03-02T03:12:32;4.20;99.90
15937;DHT22;9163;48.818;8.976;2024-03-02T03:15:01;4.20;99.90
15937;DHT22;9163;48.818;8.976;2024-03-02T03:17:30;4.20;99.90
15937;DHT22;9163;48.818;8.976;2024-03-02T03:19:57;4.20;99.90
15937;DHT22;9163;48.818;8.976;2024-03-02T03:22:24;4.20;99.90
15937;DHT22;9163;48.818;8.976;2024-03-02T03:24:52;4.20;99.90
15937;DHT22;9163;48.818;8.976;2024-03-02T03:27:19;4.20;99.90
15937;DHT22;9163;48.818;8.976;2024-03-02T03:29:46;4.20;99.90
15937;DHT22;9163;48.818;8.976;2024-03-02T03:32:15;4.20;99.90
15937;DHT22;9163;48.818;8.976;2024-03-02T03:34:43;4.20;99.90
15937;DHT22;9163;48.818;8.976;2024-03-02T03:37:10;4.20;99.90
15937;DHT22;9163;48.818;8.976;2024-03-02T03:39:37;4.20;99.90
15937;DHT22;9163;48.818;8.976;2024-03-02T03:42:05;4.20;99.90
15937;DHT22;9163;48.818;8.976;2024-03-02T03:44:32;4.20;99.90
15937;DHT22;9163;48.818;8.976;2024-03-02T03:47:00;4.20;99.90
15937;DHT22;9163;48.818;8.976;2024-03-02T03:49:29;4.20;99.90
15937;DHT22;9163;48.818;8.976;2024-03-02T03:51:56;4.20;99.90
15937;DHT22;9163;48.818;8.976;2024-03-02T03:54:23;4.20;99.90
15937;DHT22;9163;48.818;8.976;2024-03-02T03:56:51;4.20;99.90
15937;DHT22;9163;48.818;8.976;2024-03-02T03:59:18;4.10;99.90
15937;DHT22;9163;48.818;8.976;2024-03-02T04:01:45;4.10;99.90
15937;DHT22;9163;48.818;8.976;2024-03-02T04:04:13;4.10;99.90
15937;DHT22;9163;48.818;8.976;2024-03-02T04:06:41;4.00;99.90
15937;DHT22;9163;48.818;8.976;2024-03-02T04:09:08;4.00;99.90
15937;DHT22;9163;48.818;8.976;2024-03-02T04:11:36;4.00;99.90
15937;DHT22;9163;48.818;8.976;2024-03-02T04:14:03;4.00;99.90
15937;DHT22;9163;48.818;8.976;2024-03-02T04:16:32;4.00;99.90
15937;DHT22;9163;48.818;8.976;2024-03-02T04:18:59;4.00;99.90
15937;DHT22;9163;48.818;8.976;2024-03-02T04:21:26;3.90;99.90
15937;DHT22;9163;48.818;8.976;2024-03-02T04:23:55;3.90;99.90
15937;DHT22;9163;48.818;8.976;2024-03-02T04:26:24;3.90;99.90
15937;DHT22;9163;48.818;8.976;2024-03-02T04:28:51;4.00;99.90
15937;DHT22;9163;48.818;8.976;2024-03-02T04:31:19;4.10;99.90
15937;DHT22;9163;48.818;8.976;2024-03-02T04:33:47;4.00;99.90
15937;DHT22;9163;48.818;8.976;2024-03-02T04:36:14;4.00;99.90
15937;DHT22;9163;48.818;8.976;2024-03-02T04:38:41;4.00;99.90
15937;DHT22;9163;48.818;8.976;2024-03-02T04:41:10;4.00;99.90
15937;DHT22;9163;48.818;8.976;2024-03-02T04:43:37;4.00;99.90
15937;DHT22;9163;48.818;8.976;2024-03-02T04:46:05;3.90;99.90
15937;DHT22;9163;48.818;8.976;2024-03-02T04:48:32;4.00;99.90
15937;DHT22;9163;48.818;8.976;2024-03-02T04:51:00;3.90;99.90
15937;DHT22;9163;48.818;8.976;2024-03-02T04:53:27;3.80;99.90
15937;DHT22;9163;48.818;8.976;2024-03-02T04:55:54;3.80;99.90
15937;DHT22;9163;48.818;8.976;2024-03-02T04:58:54;3.70;99.90
15937;DHT22;9163;48.818;8.976;2024-03-02T05:01:22;3.80;99.90
15937;DHT22;9163;48.818;8.976;2024-03-02T05:03:49;3.80;99.90
15937;DHT22;9163;48.818;8.976;2024-03-02T05:06:17;3.80;99.90
15937;DHT22;9163;48.818;8.976;2024-03-02T05:08:44;3.80;99.90
15937;DHT22;9163;48.818;8.976;2024-03-02T05:11:11;3.80;99.90
15937;DHT22;9163;48.818;8.976;2024-03-02T05:13:58;3.80;99.90
15937;DHT22;9163;48.818;8.976;2024-03-02T05:16:25;3.70;99.90
15937;DHT22;9163;48.818;8.976;2024-03-02T05:18:52;3.80;99.90
15937;DHT22;9163;48.818;8.976;2024-03-02T05:21:19;3.70;99.90
15937;DHT22;9163;48.818;8.976;2024-03-02T05:23:47;3.70;99.90
15937;DHT22;9163;48.818;8.976;2024-03-02T05:26:14;3.70;99.90
15937;DHT22;9163;48.818;8.976;2024-03-02T05:28:41;3.70;99.90
15937;DHT22;9163;48.818;8.976;2024-03-02T05:31:11;3.70;99.90
15937;DHT22;9163;48.818;8.976;2024-03-02T05:33:41;3.70;99.90
15937;DHT22;9163;48.818;8.976;2024-03-02T05:36:09;3.60;99.90
15937;DHT22;9163;48.818;8.976;2024-03-02T05:38:36;3.60;99.90
15937;DHT22;9163;48.818;8.976;2024-03-02T05:41:04;3.60;99.90
15937;DHT22;9163;48.818;8.976;2024-03-02T05:43:31;3.60;99.90
15937;DHT22;9163;48.818;8.976;2024-03-02T05:45:58;3.50;99.90
15937;DHT22;9163;48.818;8.976;2024-03-02T05:48:27;3.40;99.90
15937;DHT22;9163;48.818;8.976;2024-03-02T05:50:54;3.40;99.90
15937;DHT22;9163;48.818;8.976;2024-03-02T05:53:22;3.40;99.90
15937;DHT22;9163;48.818;8.976;2024-03-02T05:55:49;3.40;99.90
15937;DHT22;9163;48.818;8.976;2024-03-02T05:58:19;3.30;99.90
15937;DHT22;9163;48.818;8.976;2024-03-02T06:00:58;3.30;99.90
15937;DHT22;9163;48.818;8.976;2024-03-02T06:03:27;3.30;99.90
15937;DHT22;9163;48.818;8.976;2024-03-02T06:05:54;3.40;99.90
15937;DHT22;9163;48.818;8.976;2024-03-02T06:08:21;3.40;99.90
15937;DHT22;9163;48.818;8.976;2024-03-02T06:10:49;3.40;99.90
15937;DHT22;9163;48.818;8.976;2024-03-02T06:13:16;3.50;99.90
15937;DHT22;9163;48.818;8.976;2024-03-02T06:15:43;3.50;99.90
15937;DHT22;9163;48.818;8.976;2024-03-02T06:18:10;3.50;99.90
15937;DHT22;9163;48.818;8.976;2024-03-02T06:20:39;3.50;99.90
15937;DHT22;9163;48.818;8.976;2024-03-02T06:23:06;3.60;99.90
15937;DHT22;9163;48.818;8.976;2024-03-02T06:25:34;3.60;99.90
15937;DHT22;9163;48.818;8.976;2024-03-02T06:28:01;3.60;99.90
15937;DHT22;9163;48.818;8.976;2024-03-02T06:30:28;3.60;99.90
15937;DHT22;9163;48.818;8.976;2024-03-02T06:32:55;3.60;99.90
15937;DHT22;9163;48.818;8.976;2024-03-02T06:35:22;3.70;99.90
15937;DHT22;9163;48.818;8.976;2024-03-02T06:37:51;3.70;99.90
15937;DHT22;9163;48.818;8.976;2024-03-02T06:40:18;3.70;99.90
15937;DHT22;9163;48.818;8.976;2024-03-02T06:42:46;3.70;99.90
15937;DHT22;9163;48.818;8.976;2024-03-02T06:45:14;3.80;99.90
15937;DHT22;9163;48.818;8.976;2024-03-02T06:47:41;3.80;99.90
15937;DHT22;9163;48.818;8.976;2024-03-02T06:50:09;3.80;99.90
15937;DHT22;9163;48.818;8.976;2024-03-02T06:52:36;3.80;99.90
15937;DHT22;9163;48.818;8.976;2024-03-02T06:55:06;3.80;99.90
15937;DHT22;9163;48.818;8.976;2024-03-02T06:57:33;3.90;99.90
15937;DHT22;9163;48.818;8.976;2024-03-02T07:00:00;4.00;99.90
15937;DHT22;9163;48.818;8.976;2024-03-02T07:02:31;4.10;99.90
15937;DHT22;9163;48.818;8.976;2024-03-02T07:04:58;4.10;99.90
15937;DHT22;9163;48.818;8.976;2024-03-02T07:07:25;4.20;99.90
15937;DHT22;9163;48.818;8.976;2024-03-02T07:09:52;4.40;99.90
15937;DHT22;9163;48.818;8.976;2024-03-02T07:12:21;4.60;99.90
15937;DHT22;9163;48.818;8.976;2024-03-02T07:14:48;4.70;99.90
15937;DHT22;9163;48.818;8.976;2024-03-02T07:17:50;4.70;99.90
15937;DHT22;9163;48.818;8.976;2024-03-02T07:20:17;4.60;99.90
15937;DHT22;9163;48.818;8.976;2024-03-02T07:22:44;4.50;99.90
15937;DHT22;9163;48.818;8.976;2024-03-02T07:25:12;4.50;99.90
15937;DHT22;9163;48.818;8.976;2024-03-02T07:27:41;4.40;99.90
15937;DHT22;9163;48.818;8.976;2024-03-02T07:30:12;4.50;99.90
15937;DHT22;9163;48.818;8.976;2024-03-02T07:32:40;4.50;99.90
15937;DHT22;9163;48.818;8.976;2024-03-02T07:35:12;4.50;99.90
15937;DHT22;9163;48.818;8.976;2024-03-02T07:37:41;4.40;99.90
15937;DHT22;9163;48.818;8.976;2024-03-02T07:40:12;4.40;99.90
15937;DHT22;9163;48.818;8.976;2024-03-02T07:42:41;4.40;99.90
15937;DHT22;9163;48.818;8.976;2024-03-02T07:45:09;4.40;99.90
15937;DHT22;9163;48.818;8.976;2024-03-02T07:47:36;4.50;99.90
15937;DHT22;9163;48.818;8.976;2024-03-02T07:50:04;4.50;99.90
15937;DHT22;9163;48.818;8.976;2024-03-02T07:52:33;4.40;99.90
15937;DHT22;9163;48.818;8.976;2024-03-02T07:55:00;4.50;99.90
15937;DHT22;9163;48.818;8.976;2024-03-02T07:57:27;4.60;99.90
15937;DHT22;9163;48.818;8.976;2024-03-02T07:59:56;4.60;99.90
15937;DHT22;9163;48.818;8.976;2024-03-02T08:02:25;4.60;99.90
15937;DHT22;9163;48.818;8.976;2024-03-02T08:04:52;4.70;99.90
15937;DHT22;9163;48.818;8.976;2024-03-02T08:07:19;4.80;99.90
15937;DHT22;9163;48.818;8.976;2024-03-02T08:09:47;5.00;99.90
15937;DHT22;9163;48.818;8.976;2024-03-02T08:12:14;5.30;99.90
15937;DHT22;9163;48.818;8.976;2024-03-02T08:14:41;5.60;99.90
15937;DHT22;9163;48.818;8.976;2024-03-02T08:17:10;6.00;99.90
15937;DHT22;9163;48.818;8.976;2024-03-02T08:19:37;6.20;99.90
15937;DHT22;9163;48.818;8.976;2024-03-02T08:22:04;6.50;99.90
15937;DHT22;9163;48.818;8.976;2024-03-02T08:24:32;6.70;99.90
15937;DHT22;9163;48.818;8.976;2024-03-02T08:27:00;6.80;99.90
15937;DHT22;9163;48.818;8.976;2024-03-02T08:29:27;6.80;99.90
15937;DHT22;9163;48.818;8.976;2024-03-02T08:31:55;7.00;99.90
15937;DHT22;9163;48.818;8.976;2024-03-02T08:34:23;7.20;99.90
15937;DHT22;9163;48.818;8.976;2024-03-02T08:36:50;7.50;99.90
15937;DHT22;9163;48.818;8.976;2024-03-02T08:39:18;7.40;99.90
15937;DHT22;9163;48.818;8.976;2024-03-02T08:41:47;7.70;99.90
15937;DHT22;9163;48.818;8.976;2024-03-02T08:44:14;8.00;99.90
15937;DHT22;9163;48.818;8.976;2024-03-02T08:46:42;8.00;98.20
15937;DHT22;9163;48.818;8.976;2024-03-02T08:49:09;8.20;83.60
15937;DHT22;9163;48.818;8.976;2024-03-02T08:51:38;8.50;50.90
15937;DHT22;9163;48.818;8.976;2024-03-02T08:54:05;8.50;50.70
15937;DHT22;9163;48.818;8.976;2024-03-02T08:56:33;8.80;25.80
15937;DHT22;9163;48.818;8.976;2024-03-02T08:59:00;8.90;6.10
15937;DHT22;9163;48.818;8.976;2024-03-02T09:01:27;8.90;1.00
15937;DHT22;9163;48.818;8.976;2024-03-02T09:03:55;9.10;1.00
15937;DHT22;9163;48.818;8.976;2024-03-02T09:06:22;9.20;1.00
15937;DHT22;9163;48.818;8.976;2024-03-02T09:08:50;9.20;1.00
15937;DHT22;9163;48.818;8.976;2024-03-02T09:11:18;9.30;1.00
15937;DHT22;9163;48.818;8.976;2024-03-02T09:13:45;9.70;1.00
15937;DHT22;9163;48.818;8.976;2024-03-02T09:16:12;9.80;1.00
15937;DHT22;9163;48.818;8.976;2024-03-02T09:18:39;10.00;1.00
15937;DHT22;9163;48.818;8.976;2024-03-02T09:21:07;10.20;1.00
15937;DHT22;9163;48.818;8.976;2024-03-02T09:23:34;10.40;1.00
15937;DHT22;9163;48.818;8.976;2024-03-02T09:26:03;10.90;1.00
15937;DHT22;9163;48.818;8.976;2024-03-02T09:28:30;10.90;1.00
15937;DHT22;9163;48.818;8.976;2024-03-02T09:30:57;11.20;1.00
15937;DHT22;9163;48.818;8.976;2024-03-02T09:33:24;11.20;1.00
15937;DHT22;9163;48.818;8.976;2024-03-02T09:35:52;11.50;1.00
15937;DHT22;9163;48.818;8.976;2024-03-02T09:38:19;11.90;1.00
15937;DHT22;9163;48.818;8.976;2024-03-02T09:40:46;12.10;1.00
15937;DHT22;9163;48.818;8.976;2024-03-02T09:43:15;12.40;1.00
15937;DHT22;9163;48.818;8.976;2024-03-02T09:45:43;12.80;1.00
15937;DHT22;9163;48.818;8.976;2024-03-02T09:48:10;12.80;1.00
15937;DHT22;9163;48.818;8.976;2024-03-02T09:50:38;12.90;1.00
15937;DHT22;9163;48.818;8.976;2024-03-02T09:53:07;12.80;1.00
15937;DHT22;9163;48.818;8.976;2024-03-02T09:55:34;13.00;1.00
15937;DHT22;9163;48.818;8.976;2024-03-02T09:58:01;13.20;99.90
15937;DHT22;9163;48.818;8.976;2024-03-02T10:00:31;13.20;1.00
15937;DHT22;9163;48.818;8.976;2024-03-02T10:02:59;13.30;1.00
15937;DHT22;9163;48.818;8.976;2024-03-02T10:05:27;13.40;1.00
15937;DHT22;9163;48.818;8.976;2024-03-02T10:08:01;13.70;1.00
15937;DHT22;9163;48.818;8.976;2024-03-02T10:10:36;13.70;1.00
15937;DHT22;9163;48.818;8.976;2024-03-02T10:13:06;13.90;1.00
15937;DHT22;9163;48.818;8.976;2024-03-02T10:15:36;14.20;99.90
15937;DHT22;9163;48.818;8.976;2024-03-02T10:18:04;14.70;99.90
15937;DHT22;9163;48.818;8.976;2024-03-02T10:20:32;14.90;99.90
15937;DHT22;9163;48.818;8.976;2024-03-02T10:23:10;15.20;1.00
15937;DHT22;9163;48.818;8.976;2024-03-02T10:25:38;15.60;1.00
15937;DHT22;9163;48.818;8.976;2024-03-02T10:28:06;16.00;99.90
15937;DHT22;9163;48.818;8.976;2024-03-02T10:30:35;16.20;99.90
15937;DHT22;9163;48.818;8.976;2024-03-02T10:33:03;16.40;99.90
15937;DHT22;9163;48.818;8.976;2024-03-02T10:35:32;16.90;1.00
15937;DHT22;9163;48.818;8.976;2024-03-02T10:38:04;17.60;1.00
15937;DHT22;9163;48.818;8.976;2024-03-02T10:40:32;18.10;1.00
15937;DHT22;9163;48.818;8.976;2024-03-02T10:43:01;18.50;1.00
15937;DHT22;9163;48.818;8.976;2024-03-02T10:45:29;18.80;1.00
15937;DHT22;9163;48.818;8.976;2024-03-02T10:47:58;19.30;1.00
15937;DHT22;9163;48.818;8.976;2024-03-02T10:50:27;20.20;1.00
15937;DHT22;9163;48.818;8.976;2024-03-02T10:52:54;20.80;1.00
15937;DHT22;9163;48.818;8.976;2024-03-02T10:55:21;21.20;1.00
15937;DHT22;9163;48.818;8.976;2024-03-02T10:57:51;22.40;1.00
15937;DHT22;9163;48.818;8.976;2024-03-02T11:00:19;23.10;1.00
15937;DHT22;9163;48.818;8.976;2024-03-02T11:02:51;22.30;1.00
15937;DHT22;9163;48.818;8.976;2024-03-02T11:05:27;22.30;1.00
15937;DHT22;9163;48.818;8.976;2024-03-02T11:08:01;23.00;1.00
15937;DHT22;9163;48.818;8.976;2024-03-02T11:10:34;23.30;1.00
15937;DHT22;9163;48.818;8.976;2024-03-02T11:13:05;24.90;1.00
15937;DHT22;9163;48.818;8.976;2024-03-02T11:15:34;25.20;1.00
15937;DHT22;9163;48.818;8.976;2024-03-02T11:18:04;25.80;1.00
15937;DHT22;9163;48.818;8.976;2024-03-02T11:20:37;25.40;1.00
15937;DHT22;9163;48.818;8.976;2024-03-02T11:23:06;25.70;1.00
15937;DHT22;9163;48.818;8.976;2024-03-02T11:25:33;25.90;1.00
15937;DHT22;9163;48.818;8.976;2024-03-02T11:28:03;25.40;1.00
15937;DHT22;9163;48.818;8.976;2024-03-02T11:30:49;25.90;1.00
15937;DHT22;9163;48.818;8.976;2024-03-02T11:33:23;26.90;1.00
15937;DHT22;9163;48.818;8.976;2024-03-02T11:35:56;25.90;1.00
15937;DHT22;9163;48.818;8.976;2024-03-02T11:38:28;26.80;1.00
15937;DHT22;9163;48.818;8.976;2024-03-02T11:40:56;27.90;1.00
15937;DHT22;9163;48.818;8.976;2024-03-02T11:43:25;27.80;1.00
15937;DHT22;9163;48.818;8.976;2024-03-02T11:45:57;27.20;1.00
15937;DHT22;9163;48.818;8.976;2024-03-02T11:48:25;27.00;1.00
15937;DHT22;9163;48.818;8.976;2024-03-02T11:50:58;26.00;1.00
15937;DHT22;9163;48.818;8.976;2024-03-02T11:53:27;23.90;1.00
15937;DHT22;9163;48.818;8.976;2024-03-02T11:55:58;24.10;1.00
15937;DHT22;9163;48.818;8.976;2024-03-02T11:58:27;24.20;1.00
15937;DHT22;9163;48.818;8.976;2024-03-02T12:00:56;23.20;1.00
15937;DHT22;9163;48.818;8.976;2024-03-02T12:03:24;23.20;99.90
15937;DHT22;9163;48.818;8.976;2024-03-02T12:05:54;23.10;1.00
15937;DHT22;9163;48.818;8.976;2024-03-02T12:08:21;23.80;99.90
15937;DHT22;9163;48.818;8.976;2024-03-02T12:10:58;24.30;99.90
15937;DHT22;9163;48.818;8.976;2024-03-02T12:13:26;24.10;99.90
15937;DHT22;9163;48.818;8.976;2024-03-02T12:15:54;24.00;99.90
15937;DHT22;9163;48.818;8.976;2024-03-02T12:18:22;25.80;99.90
15937;DHT22;9163;48.818;8.976;2024-03-02T12:20:50;25.70;99.90
15937;DHT22;9163;48.818;8.976;2024-03-02T12:23:20;26.50;99.90
15937;DHT22;9163;48.818;8.976;2024-03-02T12:25:48;27.70;1.00
15937;DHT22;9163;48.818;8.976;2024-03-02T12:28:15;26.80;99.90
15937;DHT22;9163;48.818;8.976;2024-03-02T12:30:43;26.90;99.90
15937;DHT22;9163;48.818;8.976;2024-03-02T12:33:11;27.00;1.00
15937;DHT22;9163;48.818;8.976;2024-03-02T12:35:40;27.30;1.00
15937;DHT22;9163;48.818;8.976;2024-03-02T12:38:09;26.60;1.00
15937;DHT22;9163;48.818;8.976;2024-03-02T12:40:39;25.00;1.00
15937;DHT22;9163;48.818;8.976;2024-03-02T12:43:06;25.90;1.00
15937;DHT22;9163;48.818;8.976;2024-03-02T12:45:34;25.40;99.90
15937;DHT22;9163;48.818;8.976;2024-03-02T12:48:01;26.80;1.00
15937;DHT22;9163;48.818;8.976;2024-03-02T12:50:29;28.60;1.00
15937;DHT22;9163;48.818;8.976;2024-03-02T12:52:57;28.60;1.00
15937;DHT22;9163;48.818;8.976;2024-03-02T12:55:25;28.00;1.00
15937;DHT22;9163;48.818;8.976;2024-03-02T12:57:54;26.30;1.00
15937;DHT22;9163;48.818;8.976;2024-03-02T13:00:21;26.60;1.00
15937;DHT22;9163;48.818;8.976;2024-03-02T13:02:49;27.10;99.90
15937;DHT22;9163;48.818;8.976;2024-03-02T13:05:17;25.90;99.90
15937;DHT22;9163;48.818;8.976;2024-03-02T13:07:47;26.10;99.90
15937;DHT22;9163;48.818;8.976;2024-03-02T13:10:14;25.00;99.90
15937;DHT22;9163;48.818;8.976;2024-03-02T13:12:42;25.30;99.90
15937;DHT22;9163;48.818;8.976;2024-03-02T13:15:10;25.00;99.90
15937;DHT22;9163;48.818;8.976;2024-03-02T13:17:39;25.00;99.90
15937;DHT22;9163;48.818;8.976;2024-03-02T13:20:07;24.80;99.90
15937;DHT22;9163;48.818;8.976;2024-03-02T13:22:36;24.90;99.90
15937;DHT22;9163;48.818;8.976;2024-03-02T13:25:07;24.90;99.90
15937;DHT22;9163;48.818;8.976;2024-03-02T13:27:36;25.00;99.90
15937;DHT22;9163;48.818;8.976;2024-03-02T13:30:05;26.10;99.90
15937;DHT22;9163;48.818;8.976;2024-03-02T13:32:36;25.80;99.90
15937;DHT22;9163;48.818;8.976;2024-03-02T13:35:04;26.20;99.90
15937;DHT22;9163;48.818;8.976;2024-03-02T13:37:31;25.90;99.90
15937;DHT22;9163;48.818;8.976;2024-03-02T13:39:59;26.50;99.90
15937;DHT22;9163;48.818;8.976;2024-03-02T13:42:26;25.30;99.90
15937;DHT22;9163;48.818;8.976;2024-03-02T13:44:53;22.50;99.90
15937;DHT22;9163;48.818;8.976;2024-03-02T13:47:20;21.50;99.90
15937;DHT22;9163;48.818;8.976;2024-03-02T13:49:49;20.30;99.90
15937;DHT22;9163;48.818;8.976;2024-03-02T13:52:16;19.50;99.90
15937;DHT22;9163;48.818;8.976;2024-03-02T13:54:45;19.10;99.90
15937;DHT22;9163;48.818;8.976;2024-03-02T13:57:12;19.00;99.90
15937;DHT22;9163;48.818;8.976;2024-03-02T13:59:41;18.20;99.90
15937;DHT22;9163;48.818;8.976;2024-03-02T14:02:08;18.30;55.30
15937;DHT22;9163;48.818;8.976;2024-03-02T14:04:36;17.80;47.00
15937;DHT22;9163;48.818;8.976;2024-03-02T14:07:06;18.00;35.00
15937;DHT22;9163;48.818;8.976;2024-03-02T14:09:34;17.70;99.90
15937;DHT22;9163;48.818;8.976;2024-03-02T14:12:02;18.20;99.90
15937;DHT22;9163;48.818;8.976;2024-03-02T14:14:30;18.70;99.90
15937;DHT22;9163;48.818;8.976;2024-03-02T14:16:57;19.10;38.00
15937;DHT22;9163;48.818;8.976;2024-03-02T14:19:29;19.90;99.90
15937;DHT22;9163;48.818;8.976;2024-03-02T14:21:56;21.00;48.30
15937;DHT22;9163;48.818;8.976;2024-03-02T14:24:25;21.90;99.90
15937;DHT22;9163;48.818;8.976;2024-03-02T14:26:54;22.60;99.90
15937;DHT22;9163;48.818;8.976;2024-03-02T14:29:23;23.80;99.90
15937;DHT22;9163;48.818;8.976;2024-03-02T14:31:50;25.40;99.90
15937;DHT22;9163;48.818;8.976;2024-03-02T14:34:18;25.30;99.90
15937;DHT22;9163;48.818;8.976;2024-03-02T14:36:45;26.80;99.90
15937;DHT22;9163;48.818;8.976;2024-03-02T14:39:12;27.10;99.90
15937;DHT22;9163;48.818;8.976;2024-03-02T14:41:41;26.10;99.90
15937;DHT22;9163;48.818;8.976;2024-03-02T14:44:08;28.20;99.90
15937;DHT22;9163;48.818;8.976;2024-03-02T14:46:35;28.90;1.00
15937;DHT22;9163;48.818;8.976;2024-03-02T14:49:03;29.80;99.90
15937;DHT22;9163;48.818;8.976;2024-03-02T14:51:30;30.30;99.90
15937;DHT22;9163;48.818;8.976;2024-03-02T14:53:58;30.80;1.00
15937;DHT22;9163;48.818;8.976;2024-03-02T14:56:25;31.50;1.00
15937;DHT22;9163;48.818;8.976;2024-03-02T14:58:54;31.80;1.00
15937;DHT22;9163;48.818;8.976;2024-03-02T15:01:21;31.90;1.00
15937;DHT22;9163;48.818;8.976;2024-03-02T15:03:49;30.90;1.00
15937;DHT22;9163;48.818;8.976;2024-03-02T15:06:16;29.90;1.00
15937;DHT22;9163;48.818;8.976;2024-03-02T15:08:43;29.70;1.00
15937;DHT22;9163;48.818;8.976;2024-03-02T15:11:12;29.80;1.00
15937;DHT22;9163;48.818;8.976;2024-03-02T15:13:42;30.10;99.90
15937;DHT22;9163;48.818;8.976;2024-03-02T15:16:11;28.80;1.00
15937;DHT22;9163;48.818;8.976;2024-03-02T15:18:39;27.60;99.90
15937;DHT22;9163;48.818;8.976;2024-03-02T15:21:06;26.40;99.90
15937;DHT22;9163;48.818;8.976;2024-03-02T15:23:33;25.40;99.90
15937;DHT22;9163;48.818;8.976;2024-03-02T15:26:01;24.70;99.90
15937;DHT22;9163;48.818;8.976;2024-03-02T15:28:29;23.90;99.90
15937;DHT22;9163;48.818;8.976;2024-03-02T15:30:56;22.80;99.90
15937;DHT22;9163;48.818;8.976;2024-03-02T15:33:24;21.70;99.90
15937;DHT22;9163;48.818;8.976;2024-03-02T15:35:58;20.80;99.90
15937;DHT22;9163;48.818;8.976;2024-03-02T15:38:25;20.10;99.90
15937;DHT22;9163;48.818;8.976;2024-03-02T15:40:53;19.40;99.90
15937;DHT22;9163;48.818;8.976;2024-03-02T15:43:20;18.70;99.90
15937;DHT22;9163;48.818;8.976;2024-03-02T15:45:47;18.60;99.90
15937;DHT22;9163;48.818;8.976;2024-03-02T15:48:14;18.20;99.90
15937;DHT22;9163;48.818;8.976;2024-03-02T15:50:43;17.70;99.10
15937;DHT22;9163;48.818;8.976;2024-03-02T15:53:10;17.30;1.00
15937;DHT22;9163;48.818;8.976;2024-03-02T15:55:39;17.00;1.00
15937;DHT22;9163;48.818;8.976;2024-03-02T15:58:06;16.80;1.00
15937;DHT22;9163;48.818;8.976;2024-03-02T16:00:33;16.40;1.00
15937;DHT22;9163;48.818;8.976;2024-03-02T16:03:01;16.20;1.00
15937;DHT22;9163;48.818;8.976;2024-03-02T16:05:28;16.00;1.00
15937;DHT22;9163;48.818;8.976;2024-03-02T16:07:57;16.00;1.00